Time;durP1;ratioP1;P1;durP2;ratioP2;P2;SDS_P1;SDS_P2;PMS_P1;PMS_P2;Temp;Humidity;BMP_temperature;BMP_pressure;BME280_temperature;BME280_humidity;BME280_pressure;Samples;Min_cycle;Max_cycle;Signal;HPM_P1;HPM_P2
2021/10/08 00:01:28;;;;;;;2.20;1.20;;;;;;;16.01;99.12;101492.16;4982613;28;20093;-66
2021/10/08 00:03:54;;;;;;;2.05;1.02;;;;;;;16.04;99.05;101499.06;4974333;28;20093;-67
2021/10/08 00:06:20;;;;;;;2.95;1.40;;;;;;;16.01;99.04;101494.88;4982009;28;20142;-65
2021/10/08 00:08:46;;;;;;;1.73;1.27;;;;;;;16.01;99.10;101500.31;4954502;28;20138;-72
2021/10/08 00:11:13;;;;;;;2.22;1.38;;;;;;;16.01;99.33;101500.31;4985498;28;20117;-67
2021/10/08 00:13:38;;;;;;;1.85;1.10;;;;;;;16.00;99.06;101505.91;4992157;28;20038;-66
2021/10/08 00:16:05;;;;;;;1.55;1.17;;;;;;;15.95;99.45;101494.78;4967276;28;20038;-67
2021/10/08 00:18:32;;;;;;;3.38;1.50;;;;;;;15.94;99.41;101506.69;4988079;28;22805;-68
2021/10/08 00:20:59;;;;;;;2.78;1.60;;;;;;;15.94;99.95;101501.25;5000178;28;20089;-67
2021/10/08 00:23:24;;;;;;;2.13;1.60;;;;;;;15.92;99.98;101506.03;4986870;28;20046;-67
2021/10/08 00:25:50;;;;;;;2.13;1.60;;;;;;;15.85;99.92;101491.56;4971785;28;20442;-69
2021/10/08 00:28:15;;;;;;;2.00;1.50;;;;;;;15.88;100.00;101504.72;4987441;28;21261;-69
2021/10/08 00:30:41;;;;;;;1.80;1.23;;;;;;;15.89;100.00;101507.25;4980802;28;20069;-69
2021/10/08 00:33:07;;;;;;;2.13;1.27;;;;;;;15.86;100.00;101507.66;4974042;28;20084;-67
2021/10/08 00:35:33;;;;;;;2.58;1.20;;;;;;;15.84;100.00;101507.00;4982886;28;20031;-68
2021/10/08 00:37:59;;;;;;;2.50;1.45;;;;;;;15.83;100.00;101503.44;4971043;28;20162;-68
2021/10/08 00:40:25;;;;;;;2.85;1.25;;;;;;;15.81;100.00;101510.09;4969274;28;20483;-67
2021/10/08 00:42:50;;;;;;;1.90;1.40;;;;;;;15.82;100.00;101517.19;4964427;28;20428;-67
2021/10/08 00:45:16;;;;;;;1.58;1.10;;;;;;;15.79;100.00;101515.69;4984742;28;20056;-66
2021/10/08 00:47:42;;;;;;;2.15;1.40;;;;;;;15.79;100.00;101517.56;4983384;28;20125;-67
2021/10/08 00:50:09;;;;;;;1.90;1.23;;;;;;;15.80;100.00;101511.97;4989885;28;20124;-67
2021/10/08 00:52:35;;;;;;;2.70;1.20;;;;;;;15.78;100.00;101508.59;4968066;28;20460;-66
2021/10/08 00:55:00;;;;;;;2.10;1.30;;;;;;;15.77;100.00;101512.38;4967578;28;20321;-66
2021/10/08 00:57:26;;;;;;;2.38;1.30;;;;;;;15.76;100.00;101513.38;4989587;28;20045;-66
2021/10/08 00:59:52;;;;;;;2.22;1.10;;;;;;;15.69;100.00;101507.06;4966181;28;20038;-68
2021/10/08 01:02:18;;;;;;;2.05;1.10;;;;;;;15.69;100.00;101517.03;4983878;28;20058;-66
2021/10/08 01:04:45;;;;;;;2.10;1.00;;;;;;;15.64;100.00;101505.88;4988460;28;20135;-66
2021/10/08 01:07:11;;;;;;;4.00;1.30;;;;;;;15.64;100.00;101524.88;4983252;28;20030;-67
2021/10/08 01:09:37;;;;;;;1.50;1.20;;;;;;;15.63;100.00;101534.88;4957178;28;20041;-67
2021/10/08 01:12:03;;;;;;;1.75;1.30;;;;;;;15.65;100.00;101538.25;4982550;28;20026;-67
2021/10/08 01:14:28;;;;;;;2.55;1.10;;;;;;;15.63;100.00;101534.88;4988110;28;20088;-68
2021/10/08 01:16:54;;;;;;;1.50;1.13;;;;;;;15.66;100.00;101539.91;4985329;28;20066;-67
2021/10/08 01:19:20;;;;;;;1.75;1.20;;;;;;;15.69;100.00;101545.00;4985819;28;20034;-68
2021/10/08 01:21:49;;;;;;;1.65;1.10;;;;;;;15.69;100.00;101542.31;4984278;28;20033;-67
2021/10/08 01:24:14;;;;;;;3.42;1.10;;;;;;;15.68;100.00;101532.44;4983652;28;20384;-70
2021/10/08 01:26:40;;;;;;;3.45;1.25;;;;;;;15.70;100.00;101543.13;4986979;28;20137;-68
2021/10/08 01:29:10;;;;;;;2.50;1.20;;;;;;;15.72;100.00;101543.78;4975229;28;20065;-69
2021/10/08 01:31:36;;;;;;;3.13;1.52;;;;;;;15.72;100.00;101541.09;4986549;28;20113;-68
2021/10/08 01:34:02;;;;;;;3.17;1.50;;;;;;;15.72;100.00;101549.22;4980922;28;20042;-67
2021/10/08 01:36:28;;;;;;;2.08;0.98;;;;;;;15.70;100.00;101552.09;4986649;28;20030;-66
2021/10/08 01:38:54;;;;;;;1.73;1.10;;;;;;;15.68;100.00;101553.28;4962110;28;20134;-68
2021/10/08 01:41:19;;;;;;;1.95;1.20;;;;;;;15.68;100.00;101564.13;4980391;28;20022;-68
2021/10/08 01:43:45;;;;;;;1.98;1.40;;;;;;;15.71;100.00;101566.50;4986450;28;20034;-67
2021/10/08 01:46:11;;;;;;;1.90;1.17;;;;;;;15.67;100.00;101557.88;4962624;28;20057;-68
2021/10/08 01:48:36;;;;;;;2.38;1.40;;;;;;;15.72;100.00;101557.34;4984044;28;20041;-67
2021/10/08 01:51:02;;;;;;;2.50;1.58;;;;;;;15.65;100.00;101548.25;4983411;28;20488;-66
2021/10/08 01:53:27;;;;;;;2.33;1.35;;;;;;;15.72;100.00;101554.63;4978369;28;20049;-68
2021/10/08 01:55:53;;;;;;;3.17;1.55;;;;;;;15.63;100.00;101540.31;4953516;28;20030;-68
2021/10/08 01:58:19;;;;;;;2.28;1.10;;;;;;;15.63;100.00;101553.84;4985606;28;20134;-67
2021/10/08 02:00:45;;;;;;;3.30;1.10;;;;;;;15.60;100.00;101546.09;4965124;28;20027;-67
2021/10/08 02:03:10;;;;;;;2.85;1.10;;;;;;;15.60;100.00;101557.78;4983762;28;20050;-69
2021/10/08 02:05:36;;;;;;;3.70;1.30;;;;;;;15.57;100.00;101547.31;4951180;28;20042;-68
2021/10/08 02:08:02;;;;;;;2.70;1.42;;;;;;;15.56;100.00;101547.53;4956210;28;20046;-69
2021/10/08 02:10:28;;;;;;;1.75;0.80;;;;;;;15.50;100.00;101534.72;4982595;28;20477;-69
2021/10/08 02:12:53;;;;;;;2.97;1.00;;;;;;;15.46;100.00;101538.84;4973995;28;20054;-67
2021/10/08 02:15:19;;;;;;;1.48;0.90;;;;;;;15.48;100.00;101539.47;4982627;28;20072;-68
2021/10/08 02:17:44;;;;;;;1.35;0.75;;;;;;;15.45;100.00;101548.00;4985025;28;20035;-66
2021/10/08 02:20:11;;;;;;;1.35;0.73;;;;;;;15.43;100.00;101550.03;4967388;28;20076;-68
2021/10/08 02:22:36;;;;;;;1.77;0.82;;;;;;;15.45;100.00;101553.41;4985812;28;20042;-68
2021/10/08 02:25:03;;;;;;;0.80;0.60;;;;;;;15.37;100.00;101532.66;4967914;28;20084;-69
2021/10/08 02:27:28;;;;;;;1.17;0.70;;;;;;;15.45;100.00;101540.69;4978740;28;20043;-68
2021/10/08 02:29:54;;;;;;;0.93;0.70;;;;;;;15.43;100.00;101544.63;4968535;28;20883;-70
2021/10/08 02:32:19;;;;;;;1.67;0.60;;;;;;;15.43;100.00;101540.06;4981393;28;20052;-71
2021/10/08 02:34:45;;;;;;;2.70;0.60;;;;;;;15.40;100.00;101540.44;4984428;28;20376;-68
2021/10/08 02:37:11;;;;;;;4.55;1.10;;;;;;;15.46;100.00;101544.28;4982802;28;20042;-70
2021/10/08 02:39:37;;;;;;;2.40;1.20;;;;;;;15.45;100.00;101546.13;4972010;28;20078;-69
2021/10/08 02:42:05;;;;;;;2.03;1.00;;;;;;;15.45;100.00;101550.69;4979397;28;20113;-70
2021/10/08 02:44:31;;;;;;;2.08;1.30;;;;;;;15.44;100.00;101543.63;4986065;28;20062;-66
2021/10/08 02:46:57;;;;;;;2.53;1.05;;;;;;;15.42;100.00;101538.38;4984782;28;20072;-70
2021/10/08 02:49:23;;;;;;;3.15;1.60;;;;;;;15.32;100.00;101526.97;4964784;28;20031;-68
2021/10/08 02:51:49;;;;;;;3.13;1.48;;;;;;;15.42;100.00;101542.94;4968564;28;20030;-68
2021/10/08 02:54:15;;;;;;;3.97;1.67;;;;;;;15.42;100.00;101540.25;4982837;28;20076;-70
2021/10/08 02:56:44;;;;;;;3.30;1.95;;;;;;;15.40;100.00;101532.31;4956255;28;20070;-69
2021/10/08 02:59:10;;;;;;;2.65;1.20;;;;;;;15.45;100.00;101542.56;4971315;28;20035;-70
2021/10/08 03:01:36;;;;;;;2.70;1.35;;;;;;;15.45;100.00;101529.03;4952826;28;20041;-70
2021/10/08 03:04:04;;;;;;;2.03;1.40;;;;;;;15.43;100.00;101533.78;4985467;28;20046;-70
2021/10/08 03:06:31;;;;;;;2.83;1.80;;;;;;;15.43;100.00;101531.94;4988021;28;20046;-69
2021/10/08 03:08:56;;;;;;;2.78;1.63;;;;;;;15.38;100.00;101520.81;4965371;28;20034;-68
2021/10/08 03:11:23;;;;;;;2.33;1.50;;;;;;;15.44;100.00;101535.47;4976884;28;20045;-71
2021/10/08 03:13:49;;;;;;;2.13;1.10;;;;;;;15.45;100.00;101542.56;4988687;28;20062;-70
2021/10/08 03:16:15;;;;;;;1.75;1.02;;;;;;;15.44;100.00;101543.63;4965776;28;20070;-69
2021/10/08 03:18:40;;;;;;;1.90;0.90;;;;;;;15.42;100.00;101537.53;4985125;28;20387;-68
2021/10/08 03:21:06;;;;;;;1.40;0.90;;;;;;;15.45;100.00;101548.00;4986480;28;20031;-69
2021/10/08 03:23:32;;;;;;;0.80;0.60;;;;;;;15.42;100.00;101540.25;4968336;28;20042;-70
2021/10/08 03:25:58;;;;;;;5.13;1.30;;;;;;;15.40;100.00;101540.44;4962164;28;20034;-69
2021/10/08 03:28:24;;;;;;;2.40;0.90;;;;;;;15.43;100.00;101548.19;4969246;28;20038;-69
2021/10/08 03:30:50;;;;;;;1.45;0.80;;;;;;;15.36;100.00;101542.69;4959218;28;20049;-68
2021/10/08 03:33:16;;;;;;;1.20;0.70;;;;;;;15.41;100.00;101541.28;4982755;28;20042;-70
2021/10/08 03:35:44;;;;;;;0.70;0.70;;;;;;;15.41;100.00;101546.72;4954810;28;20073;-69
2021/10/08 03:38:14;;;;;;;1.10;0.80;;;;;;;15.39;100.00;101545.00;4975257;28;20042;-69
2021/10/08 03:40:41;;;;;;;1.67;1.13;;;;;;;15.38;100.00;101554.19;4987163;28;20097;-68
2021/10/08 03:43:10;;;;;;;2.55;0.90;;;;;;;15.42;100.00;101559.22;4983218;28;20084;-67
2021/10/08 03:45:45;;;;;;;1.05;0.95;;;;;;;15.40;100.00;101556.72;4963639;28;20052;-70
2021/10/08 03:50:48;;;;;;;1.45;0.75;;;;;;;15.36;100.00;101545.38;4979700;28;20481;-69
2021/10/08 03:53:14;;;;;;;0.80;0.80;;;;;;;15.35;100.00;101535.59;4980303;28;20097;-67
2021/10/08 03:55:41;;;;;;;1.75;0.68;;;;;;;15.36;100.00;101544.56;4981319;28;20034;-70
2021/10/08 03:58:07;;;;;;;0.60;0.60;;;;;;;15.37;100.00;101552.50;4966246;28;20488;-69
2021/10/08 04:00:33;;;;;;;1.73;0.70;;;;;;;15.30;100.00;101545.31;4983553;28;20101;-69
2021/10/08 04:02:58;;;;;;;0.93;0.50;;;;;;;15.32;100.00;101548.66;4964767;28;20033;-70
2021/10/08 04:05:24;;;;;;;1.52;0.80;;;;;;;15.31;100.00;101542.41;4986068;28;20042;-69
2021/10/08 04:07:49;;;;;;;1.20;0.63;;;;;;;15.33;100.00;101545.78;4985592;28;20034;-72
2021/10/08 04:10:15;;;;;;;1.98;0.80;;;;;;;15.32;100.00;101544.09;4970152;28;20550;-68
2021/10/08 04:12:41;;;;;;;0.98;0.68;;;;;;;15.32;100.00;101544.09;5001933;28;20046;-69
2021/10/08 04:15:07;;;;;;;1.40;0.73;;;;;;;15.34;100.00;101549.31;5001246;28;20058;-68
2021/10/08 04:17:34;;;;;;;0.90;0.70;;;;;;;15.35;100.00;101540.16;4953607;28;20498;-70
2021/10/08 04:20:00;;;;;;;1.02;0.70;;;;;;;15.36;100.00;101553.50;4982613;28;20049;-71
2021/10/08 04:22:26;;;;;;;1.30;0.70;;;;;;;15.34;100.00;101552.03;4976053;28;20053;-70
2021/10/08 04:24:52;;;;;;;0.60;0.57;;;;;;;15.36;100.00;101556.22;4982860;28;20043;-68
2021/10/08 04:27:17;;;;;;;1.40;0.68;;;;;;;15.36;100.00;101566.22;4970370;28;20042;-71
2021/10/08 04:29:43;;;;;;;1.58;0.57;;;;;;;15.35;100.00;101569.97;4951083;28;20484;-67
2021/10/08 04:32:08;;;;;;;0.60;0.60;;;;;;;15.38;100.00;101575.84;4985584;28;20030;-68
2021/10/08 04:34:34;;;;;;;0.40;0.40;;;;;;;15.36;100.00;101558.09;4979269;28;20479;-69
2021/10/08 04:37:00;;;;;;;1.73;0.60;;;;;;;15.37;100.00;101574.19;4983452;28;20034;-70
2021/10/08 04:39:25;;;;;;;1.17;0.60;;;;;;;15.41;100.00;101576.50;4986570;28;20030;-70
2021/10/08 04:41:52;;;;;;;0.50;0.50;;;;;;;15.39;100.00;101572.09;4985848;28;20050;-68
2021/10/08 04:44:17;;;;;;;0.73;0.50;;;;;;;15.39;100.00;101580.22;4990541;28;20034;-68
2021/10/08 04:46:43;;;;;;;1.25;0.65;;;;;;;15.38;100.00;101578.56;4955326;28;20034;-70
2021/10/08 04:49:09;;;;;;;0.50;0.50;;;;;;;15.36;100.00;101564.34;4985615;28;20030;-69
2021/10/08 04:51:35;;;;;;;0.40;0.40;;;;;;;15.37;100.00;101573.31;4960483;28;20061;-68
2021/10/08 04:54:01;;;;;;;1.45;0.60;;;;;;;15.30;100.00;101561.56;5002864;28;20041;-69
2021/10/08 04:56:27;;;;;;;0.88;0.57;;;;;;;15.39;100.00;101582.09;4988137;28;20039;-70
2021/10/08 04:58:54;;;;;;;0.63;0.50;;;;;;;15.34;100.00;101574.53;5000088;28;21852;-71
2021/10/08 05:01:19;;;;;;;1.95;0.52;;;;;;;15.39;100.00;101582.09;4983858;28;20480;-69
2021/10/08 05:03:45;;;;;;;0.50;0.50;;;;;;;15.34;100.00;101579.13;4985387;28;20052;-68
2021/10/08 05:06:11;;;;;;;0.45;0.40;;;;;;;15.36;100.00;101577.91;4983394;28;20084;-68
2021/10/08 05:08:37;;;;;;;0.30;0.30;;;;;;;15.34;100.00;101571.81;4985536;28;20038;-68
2021/10/08 05:11:02;;;;;;;0.55;0.40;;;;;;;15.37;100.00;101579.59;4984296;28;20022;-69
2021/10/08 05:13:28;;;;;;;0.40;0.40;;;;;;;15.34;100.00;101589.97;5001921;28;20041;-71
2021/10/08 05:15:54;;;;;;;0.40;0.40;;;;;;;15.35;100.00;101587.06;4983043;28;20502;-68
2021/10/08 05:18:19;;;;;;;0.52;0.40;;;;;;;15.33;100.00;101594.53;4980184;28;20041;-69
2021/10/08 05:20:45;;;;;;;1.13;0.47;;;;;;;15.30;100.00;101589.50;4957029;28;20042;-68
2021/10/08 05:23:11;;;;;;;1.23;0.50;;;;;;;15.30;100.00;101588.66;4982402;28;20057;-69
2021/10/08 05:25:38;;;;;;;0.55;0.43;;;;;;;15.26;100.00;101590.88;4990207;28;20070;-69
2021/10/08 05:28:05;;;;;;;0.50;0.50;;;;;;;15.28;100.00;101599.69;5001290;28;20037;-67
2021/10/08 05:30:30;;;;;;;0.88;0.47;;;;;;;15.23;100.00;101587.72;4953699;28;20075;-71
2021/10/08 05:32:56;;;;;;;0.63;0.50;;;;;;;15.18;100.00;101586.41;4951138;28;20327;-69
2021/10/08 05:35:22;;;;;;;1.00;0.47;;;;;;;15.22;100.00;101594.19;4962536;28;22829;-69
2021/10/08 05:37:47;;;;;;;0.90;0.55;;;;;;;15.18;100.00;101591.81;4981089;28;20038;-69
2021/10/08 05:40:13;;;;;;;1.85;0.50;;;;;;;15.22;100.00;101597.72;4965067;28;20126;-71
2021/10/08 05:42:39;;;;;;;1.35;0.50;;;;;;;15.23;100.00;101601.25;4969777;28;20076;-68
2021/10/08 05:45:05;;;;;;;0.63;0.50;;;;;;;15.23;100.00;101602.09;4980662;28;20161;-71
2021/10/08 05:47:30;;;;;;;1.00;0.60;;;;;;;15.18;100.00;101599.09;4989551;28;20045;-70
2021/10/08 05:49:56;;;;;;;0.70;0.40;;;;;;;15.19;100.00;101614.34;4982740;28;20038;-70
2021/10/08 05:52:22;;;;;;;0.52;0.38;;;;;;;15.12;100.00;101605.28;4979678;28;20030;-69
2021/10/08 05:54:47;;;;;;;1.30;0.40;;;;;;;15.14;100.00;101611.34;4999623;28;20042;-70
2021/10/08 05:57:13;;;;;;;4.10;0.57;;;;;;;15.15;100.00;101619.28;4982703;28;20027;-71
2021/10/08 05:59:41;;;;;;;0.68;0.47;;;;;;;15.13;100.00;101624.03;4952259;28;20396;-70
2021/10/08 06:02:06;;;;;;;1.20;0.57;;;;;;;15.15;100.00;101621.16;4984175;28;20041;-69
2021/10/08 06:04:32;;;;;;;1.70;0.70;;;;;;;15.13;100.00;101620.50;4954923;28;20043;-69
2021/10/08 06:06:58;;;;;;;3.47;1.00;;;;;;;15.12;100.00;101629.66;4983055;28;20034;-68
2021/10/08 06:09:23;;;;;;;1.80;1.10;;;;;;;15.09;100.00;101624.63;4964398;28;20026;-68
2021/10/08 06:11:49;;;;;;;1.80;1.10;;;;;;;15.12;100.00;101624.25;4949446;28;20396;-70
2021/10/08 06:14:15;;;;;;;2.40;1.48;;;;;;;15.12;100.00;101629.66;4983205;28;20035;-69
2021/10/08 06:16:41;;;;;;;2.50;1.58;;;;;;;15.11;100.00;101630.66;4983359;28;20088;-68
2021/10/08 06:19:08;;;;;;;2.67;1.55;;;;;;;15.09;100.00;101630.03;4980324;28;20043;-69
2021/10/08 06:21:33;;;;;;;7.05;1.83;;;;;;;15.09;100.00;101632.75;4952354;28;20058;-69
2021/10/08 06:23:59;;;;;;;3.20;1.63;;;;;;;15.07;100.00;101627.50;4965269;28;20503;-70
2021/10/08 06:26:25;;;;;;;5.90;1.60;;;;;;;15.09;100.00;101630.88;4986761;28;20038;-70
2021/10/08 06:28:50;;;;;;;3.53;1.50;;;;;;;15.09;100.00;101627.31;4947874;28;20045;-70
2021/10/08 06:31:16;;;;;;;3.60;1.45;;;;;;;15.10;100.00;101637.13;4995833;28;20038;-69
2021/10/08 06:33:42;;;;;;;2.95;1.60;;;;;;;15.12;100.00;101640.50;4983141;28;20065;-69
2021/10/08 06:36:08;;;;;;;2.80;1.15;;;;;;;15.07;100.00;101632.91;4994651;28;20042;-69
2021/10/08 06:38:34;;;;;;;2.92;1.20;;;;;;;15.11;100.00;101638.78;4984474;28;20034;-70
2021/10/08 06:41:00;;;;;;;1.52;0.80;;;;;;;15.12;100.00;101635.06;4971096;28;20065;-69
2021/10/08 06:43:26;;;;;;;3.13;1.00;;;;;;;15.10;100.00;101637.13;4956439;28;20587;-69
2021/10/08 06:45:52;;;;;;;4.57;1.42;;;;;;;15.06;100.00;101636.66;4986638;28;21133;-69
2021/10/08 06:48:17;;;;;;;4.95;3.05;;;;;;;15.06;100.00;101641.25;4985719;28;21140;-70
2021/10/08 06:50:43;;;;;;;7.50;4.30;;;;;;;15.12;100.00;101652.16;4987760;28;20038;-70
2021/10/08 06:53:12;;;;;;;4.90;2.08;;;;;;;15.10;100.00;101642.53;4979977;28;20038;-69
2021/10/08 06:55:37;;;;;;;1.55;0.90;;;;;;;15.15;100.00;101657.22;4984649;28;20031;-69
2021/10/08 06:58:05;;;;;;;1.70;1.00;;;;;;;15.14;100.00;101649.28;4981892;28;20512;-70
2021/10/08 07:00:30;;;;;;;4.55;1.20;;;;;;;15.12;100.00;101651.31;4987805;28;20124;-70
2021/10/08 07:02:57;;;;;;;3.13;1.98;;;;;;;15.17;100.00;101654.31;4971363;28;20105;-70
2021/10/08 07:05:25;;;;;;;2.45;1.73;;;;;;;15.20;100.00;101663.94;4955779;28;20049;-68
2021/10/08 07:07:52;;;;;;;2.97;1.40;;;;;;;15.21;100.00;101665.63;4984997;28;20042;-70
2021/10/08 07:10:18;;;;;;;3.00;1.50;;;;;;;15.22;100.00;101664.63;4985179;28;20106;-70
2021/10/08 07:12:44;;;;;;;3.85;3.05;;;;;;;15.22;100.00;101668.16;4954802;28;20388;-69
2021/10/08 07:15:17;;;;;;;3.17;1.60;;;;;;;15.25;100.00;101667.78;4986691;28;20162;-68
2021/10/08 07:17:47;;;;;;;2.95;1.85;;;;;;;15.26;100.00;101660.50;4986332;28;20042;-71
2021/10/08 07:20:15;;;;;;;4.85;2.28;;;;;;;15.24;100.00;101655.28;4983282;28;20074;-69
2021/10/08 07:22:41;;;;;;;3.20;1.40;;;;;;;15.30;100.00;101664.53;4980601;28;20030;-69
2021/10/08 07:25:08;;;;;;;2.03;1.30;;;;;;;15.26;100.00;101661.34;4985710;28;20034;-71
2021/10/08 07:27:34;;;;;;;6.32;1.38;;;;;;;15.28;100.00;101659.28;4983865;28;20038;-68
2021/10/08 07:30:00;;;;;;;4.70;1.30;;;;;;;15.28;100.00;101666.59;4981252;28;20038;-71
2021/10/08 07:32:28;;;;;;;3.63;1.20;;;;;;;15.29;100.00;101655.53;4968781;28;20042;-69
2021/10/08 07:34:54;;;;;;;2.88;1.60;;;;;;;15.31;100.00;101666.22;4992490;28;20391;-68
2021/10/08 07:37:20;;;;;;;2.33;1.13;;;;;;;15.36;100.00;101666.50;4990442;28;20038;-68
2021/10/08 07:39:46;;;;;;;3.10;1.20;;;;;;;15.37;100.00;101669.03;4961038;28;20061;-69
2021/10/08 07:42:12;;;;;;;3.85;1.40;;;;;;;15.40;100.00;101670.53;5008192;28;20415;-68
2021/10/08 07:44:40;;;;;;;7.70;1.80;;;;;;;15.38;100.00;101678.00;4989361;28;20507;-69
2021/10/08 07:47:06;;;;;;;5.70;1.90;;;;;;;15.38;100.00;101684.25;4991289;28;20149;-68
2021/10/08 07:49:32;;;;;;;7.28;2.20;;;;;;;15.39;100.00;101683.22;4972769;28;20069;-70
2021/10/08 07:51:57;;;;;;;7.18;1.70;;;;;;;15.38;100.00;101681.53;4958625;28;20404;-68
2021/10/08 07:54:23;;;;;;;7.95;2.08;;;;;;;15.42;100.00;101698.25;4983424;28;20056;-69
2021/10/08 07:56:49;;;;;;;7.15;2.35;;;;;;;15.37;100.00;101674.44;4989833;28;20085;-70
2021/10/08 07:59:14;;;;;;;9.45;2.72;;;;;;;15.47;100.00;101689.59;4991890;28;20034;-70
2021/10/08 08:01:41;;;;;;;12.43;3.00;;;;;;;15.48;100.00;101689.41;4987628;28;20036;-68
2021/10/08 08:04:07;;;;;;;10.85;3.22;;;;;;;15.53;100.00;101695.13;4972370;28;20113;-71
2021/10/08 08:06:33;;;;;;;9.23;2.92;;;;;;;15.59;100.00;101698.97;4989373;28;20060;-69
2021/10/08 08:08:58;;;;;;;14.50;5.93;;;;;;;15.61;100.00;101691.44;4957112;28;20108;-69
2021/10/08 08:11:24;;;;;;;14.13;6.68;;;;;;;15.64;100.00;101680.25;4969507;28;20045;-69
2021/10/08 08:13:50;;;;;;;19.83;5.78;;;;;;;15.71;100.00;101689.34;4973159;28;20034;-68
2021/10/08 08:16:16;;;;;;;16.80;5.85;;;;;;;15.74;100.00;101688.13;4992079;28;20041;-67
2021/10/08 08:18:42;;;;;;;17.08;6.63;;;;;;;15.74;100.00;101669.97;4971538;28;20026;-68
2021/10/08 08:21:11;;;;;;;19.65;6.22;;;;;;;15.84;99.47;101685.97;4985519;28;20030;-69
2021/10/08 08:23:36;;;;;;;11.23;4.65;;;;;;;15.83;98.82;101685.13;4974437;28;20245;-66
2021/10/08 08:26:02;;;;;;;21.15;5.82;;;;;;;15.85;98.67;101684.97;4957078;28;20034;-68
2021/10/08 08:28:28;;;;;;;14.85;4.38;;;;;;;15.90;98.43;101697.94;4975215;28;20069;-68
2021/10/08 08:30:55;;;;;;;17.85;3.90;;;;;;;15.91;98.30;101702.34;4988454;28;20069;-67
2021/10/08 08:33:21;;;;;;;13.70;4.03;;;;;;;15.83;98.22;101700.56;4976392;28;20459;-67
2021/10/08 08:35:47;;;;;;;16.55;3.40;;;;;;;15.81;97.98;101700.75;5006728;28;20118;-69
2021/10/08 08:38:13;;;;;;;8.43;3.53;;;;;;;15.78;97.75;101703.84;4967168;28;20058;-70
2021/10/08 08:40:39;;;;;;;14.18;4.13;;;;;;;15.77;97.74;101701.31;4991000;28;20038;-68
2021/10/08 08:43:05;;;;;;;19.33;4.18;;;;;;;15.78;97.55;101700.28;4976197;28;20121;-69
2021/10/08 08:45:32;;;;;;;13.93;4.03;;;;;;;15.80;97.48;101703.66;4991715;28;20144;-67
2021/10/08 08:48:03;;;;;;;17.27;3.70;;;;;;;15.86;96.93;101694.78;4992537;28;20109;-69
2021/10/08 08:50:30;;;;;;;14.00;3.92;;;;;;;15.99;96.18;101703.09;4958891;28;20030;-68
2021/10/08 08:52:56;;;;;;;17.85;3.88;;;;;;;16.13;95.98;101703.25;4959227;28;20042;-70
2021/10/08 08:55:25;;;;;;;14.75;4.30;;;;;;;16.19;95.43;101707.91;4977963;28;20485;-68
2021/10/08 08:57:51;;;;;;;16.50;4.30;;;;;;;16.24;95.22;101700.88;4958419;28;20034;-66
2021/10/08 09:00:19;;;;;;;16.75;4.88;;;;;;;16.36;94.40;101686.84;4954911;28;20101;-68
2021/10/08 09:02:56;;;;;;;13.10;4.05;;;;;;;16.54;93.99;101706.25;4958598;28;20092;-67
2021/10/08 09:05:24;;;;;;;16.63;4.00;;;;;;;16.67;92.71;101708.25;5002940;28;20602;-67
2021/10/08 09:07:55;;;;;;;17.55;3.40;;;;;;;16.64;92.30;101714.91;4957840;28;20035;-67
2021/10/08 09:10:23;;;;;;;14.07;3.65;;;;;;;16.90;91.20;101721.69;4975281;28;20427;-67
2021/10/08 09:12:53;;;;;;;15.05;4.18;;;;;;;17.05;90.72;101730.63;4959449;28;20033;-68
2021/10/08 09:15:19;;;;;;;17.08;3.67;;;;;;;17.01;90.51;101723.03;4991778;28;20065;-69
2021/10/08 09:17:46;;;;;;;13.48;3.42;;;;;;;16.90;90.36;101721.69;4989904;28;20382;-69
2021/10/08 09:20:17;;;;;;;16.65;3.33;;;;;;;16.90;89.47;101730.66;4997954;28;20448;-67
2021/10/08 09:22:45;;;;;;;19.30;3.42;;;;;;;16.92;89.42;101744.06;4959417;28;20036;-68
2021/10/08 09:25:50;;;;;;;15.88;3.95;;;;;;;16.84;89.75;101750.47;4967772;28;20026;-67
2021/10/08 09:28:16;;;;;;;16.90;4.80;;;;;;;16.71;90.06;101734.84;4956549;28;20042;-67
2021/10/08 09:30:46;;;;;;;14.63;3.80;;;;;;;16.65;90.58;101740.22;4973112;28;20038;-67
2021/10/08 09:33:15;;;;;;;19.52;4.13;;;;;;;16.61;90.73;101738.91;4979325;28;20096;-67
2021/10/08 09:35:41;;;;;;;18.75;4.32;;;;;;;16.56;90.75;101747.63;4962319;28;20081;-65
2021/10/08 09:38:13;;;;;;;10.13;3.08;;;;;;;16.52;91.09;101749.03;4974825;28;20105;-66
2021/10/08 09:40:51;;;;;;;12.98;3.65;;;;;;;16.46;91.13;101752.53;4971438;28;20100;-66
2021/10/08 09:43:23;;;;;;;15.52;4.30;;;;;;;16.46;90.86;101766.09;4968145;28;20396;-65
2021/10/08 09:45:55;;;;;;;15.32;3.17;;;;;;;16.38;91.11;101758.91;4967213;28;20037;-68
2021/10/08 09:48:43;;;;;;;13.05;3.30;;;;;;;16.33;91.63;101765.94;4971978;28;20500;-66
2021/10/08 09:51:13;;;;;;;14.65;3.58;;;;;;;16.31;91.91;101759.84;4972079;28;20042;-65
2021/10/08 09:53:48;;;;;;;13.18;3.50;;;;;;;16.33;91.97;101758.63;4952406;28;20030;-67
2021/10/08 09:56:32;;;;;;;11.43;4.22;;;;;;;16.43;91.04;101756.47;4972662;28;20383;-68
2021/10/08 09:58:59;;;;;;;19.83;4.18;;;;;;;16.51;90.70;101757.38;4968140;28;20097;-69
2021/10/08 10:01:30;;;;;;;10.02;3.55;;;;;;;16.54;90.57;101751.56;4972457;28;20041;-70
2021/10/08 10:03:56;;;;;;;14.40;3.53;;;;;;;16.55;90.47;101747.81;4981387;28;20166;-67
2021/10/08 10:06:23;;;;;;;17.73;3.40;;;;;;;16.56;90.23;101763.06;4997510;28;20134;-68
2021/10/08 10:08:49;;;;;;;16.02;3.88;;;;;;;16.52;89.99;101764.50;4987851;28;20105;-68
2021/10/08 10:11:16;;;;;;;15.35;3.90;;;;;;;16.48;90.23;101756.75;4990501;28;20038;-65
2021/10/08 10:13:45;;;;;;;19.13;4.60;;;;;;;16.52;89.94;101768.06;4963012;28;20038;-67
2021/10/08 10:16:11;;;;;;;12.02;5.53;;;;;;;16.60;89.47;101757.06;4973737;28;20073;-65
2021/10/08 10:18:57;;;;;;;17.40;4.28;;;;;;;16.71;88.99;101770.16;5000739;28;20521;-69
2021/10/08 10:21:24;;;;;;;18.92;4.53;;;;;;;16.75;89.10;101761.59;4974408;28;20073;-67
2021/10/08 10:23:52;;;;;;;18.73;6.05;;;;;;;16.70;89.09;101760.31;4979241;28;20423;-68
2021/10/08 10:26:19;;;;;;;17.63;4.50;;;;;;;16.70;88.86;101765.75;4968870;28;20404;-71
2021/10/08 10:28:45;;;;;;;16.95;3.72;;;;;;;16.75;88.81;101773.34;4980702;28;20042;-66
2021/10/08 10:31:11;;;;;;;13.77;5.55;;;;;;;16.82;88.46;101781.56;4955484;28;20041;-68
2021/10/08 10:33:37;;;;;;;16.65;4.20;;;;;;;16.86;88.34;101788.31;4988552;28;20070;-69
2021/10/08 10:36:06;;;;;;;10.30;3.83;;;;;;;16.90;87.99;101778.75;4990674;28;20076;-66
2021/10/08 10:38:35;;;;;;;13.30;3.78;;;;;;;17.04;87.47;101782.44;4988331;28;20166;-68
2021/10/08 10:41:22;;;;;;;20.90;6.95;;;;;;;17.18;86.54;101777.97;4970898;28;20054;-67
2021/10/08 10:43:54;;;;;;;17.38;5.22;;;;;;;17.23;86.37;101776.38;4958630;28;20165;-66
2021/10/08 10:46:36;;;;;;;21.40;6.65;;;;;;;17.25;86.15;101787.03;4956993;28;20089;-66
2021/10/08 10:52:03;;;;;;;19.80;6.38;;;;;;;17.19;85.73;101785.09;4987955;28;20038;-68
2021/10/08 10:54:40;;;;;;;15.00;5.03;;;;;;;17.21;85.86;101778.44;4968544;28;20030;-66
2021/10/08 10:57:08;;;;;;;24.30;10.32;;;;;;;17.23;85.58;101772.81;4972379;28;20039;-66
2021/10/08 10:59:38;;;;;;;18.85;5.60;;;;;;;17.32;85.24;101785.22;4988629;28;20133;-67
2021/10/08 11:02:17;;;;;;;13.20;3.15;;;;;;;17.43;84.75;101775.69;4954898;28;20041;-65
2021/10/08 11:04:48;;;;;;;19.70;5.85;;;;;;;17.45;84.77;101782.59;4986771;28;20528;-65
2021/10/08 11:07:18;;;;;;;13.95;3.30;;;;;;;17.34;84.92;101789.41;5002181;28;20053;-69
2021/10/08 11:10:04;;;;;;;24.45;6.75;;;;;;;17.29;84.95;101791.03;4973209;28;20519;-67
2021/10/08 11:12:37;;;;;;;15.73;3.60;;;;;;;17.21;85.15;101799.34;4970235;28;20481;-68
2021/10/08 11:15:18;;;;;;;15.60;5.05;;;;;;;17.16;84.51;101780.88;4980094;28;20400;-67
2021/10/08 11:17:57;;;;;;;12.55;4.20;;;;;;;17.19;84.80;101788.63;4975399;28;20488;-66
2021/10/08 11:20:29;;;;;;;17.13;3.70;;;;;;;17.20;84.79;101795.78;4975481;28;20057;-69
2021/10/08 11:23:00;;;;;;;14.80;3.17;;;;;;;17.24;84.67;101794.34;5008593;28;20040;-68